Terminal Aerodrome Forecast
Issued by NWS Flagstaff, AZ

Home | Current Version | Previous Version | Text Only | Print | Product List | Glossary On
Versions: 1 2 3 4 5 6 7 8 9 10 11 12
000
FTUS45 KFGZ 170500
TAFINW
TAF
KINW 170538Z 1706/1806 12008KT P6SM SCT060 BKN200
      TEMPO 1706/1710 -SHRA BKN060
     FM171200 11012KT P6SM SCT050 OVC090 PROB30 1715/1721 4SM -TSRA
      BKN040CB
     FM172100 VRB06KT P6SM SCT060
      TEMPO 1721/1801 -SHRA BKN050=

USA.gov is the U.S. government's official web portal to all federal, state and local government web resources and services.